createdAt,value
2022-10-28T00:01:29.007Z,99474.81
2022-10-28T00:03:58.292Z,99485.84
2022-10-28T00:06:28.094Z,99478.69
2022-10-28T00:09:01.063Z,99473.44
2022-10-28T00:11:30.322Z,99467.69
2022-10-28T00:13:58.879Z,99456.34
2022-10-28T00:16:30.720Z,99463.81
2022-10-28T00:18:58.596Z,99471.53
2022-10-28T00:21:31.000Z,99458.31
2022-10-28T00:23:58.310Z,99461.63
2022-10-28T00:26:30.680Z,99460.25
2022-10-28T00:29:09.633Z,99455.03
2022-10-28T00:31:37.168Z,99461.09
2022-10-28T00:34:05.686Z,99451.16
2022-10-28T00:36:35.552Z,99439.03
2022-10-28T00:39:03.695Z,99444.31
2022-10-28T00:41:33.516Z,99446.25
2022-10-28T00:44:04.110Z,99456.44
2022-10-28T00:46:45.397Z,99450.09
2022-10-28T00:49:24.229Z,99447.34
2022-10-28T00:51:58.781Z,99444.59
2022-10-28T00:54:26.581Z,99448.16
2022-10-28T00:56:58.244Z,99448.47
2022-10-28T00:59:28.183Z,99449.88
2022-10-28T01:01:55.469Z,99447.38
2022-10-28T01:04:23.426Z,99444.09
2022-10-28T01:06:51.595Z,99442.69
2022-10-28T01:09:18.318Z,99428.38
2022-10-28T01:12:00.140Z,99435.25
2022-10-28T01:14:47.533Z,99435.25
2022-10-28T01:17:32.725Z,99422.59
2022-10-28T01:20:08.377Z,99430.56
2022-10-28T01:22:40.941Z,99427.28
2022-10-28T01:25:35.591Z,99427.56
2022-10-28T01:28:14.513Z,99429.50
2022-10-28T01:31:18.644Z,99427.84
2022-10-28T01:33:54.432Z,99416.00
2022-10-28T01:36:50.211Z,99413.53
2022-10-28T01:39:31.459Z,99408.88
2022-10-28T01:42:00.896Z,99397.28
2022-10-28T01:44:49.271Z,99400.88
2022-10-28T01:47:34.908Z,99401.97
2022-10-28T01:50:07.811Z,99395.63
2022-10-28T01:52:34.883Z,99386.03
2022-10-28T01:55:23.572Z,99380.78
2022-10-28T01:57:52.672Z,99370.56
2022-10-28T02:00:19.528Z,99366.16
2022-10-28T02:02:48.137Z,99367.28
2022-10-28T02:05:44.553Z,99365.91
2022-10-28T02:08:20.228Z,99361.81
2022-10-28T02:11:07.025Z,99366.50
2022-10-28T02:13:46.779Z,99362.09
2022-10-28T02:16:36.917Z,99357.09
2022-10-28T02:19:12.611Z,99349.38
2022-10-28T02:21:46.771Z,99336.16
2022-10-28T02:24:22.991Z,99330.94
2022-10-28T02:27:00.090Z,99325.16
2022-10-28T02:29:38.811Z,99316.34
2022-10-28T02:32:12.287Z,99312.75
2022-10-28T02:34:47.318Z,99319.09
2022-10-28T02:37:30.037Z,99310.28
2022-10-28T02:40:01.698Z,99310.84
2022-10-28T02:42:33.644Z,99303.13
2022-10-28T02:45:07.338Z,99299.31
2022-10-28T02:47:37.920Z,99295.13
2022-10-28T02:50:09.458Z,99301.47
2022-10-28T02:52:36.626Z,99279.44
2022-10-28T02:55:05.448Z,99286.59
2022-10-28T02:57:36.152Z,99270.06
2022-10-28T03:00:08.171Z,99273.66
2022-10-28T03:02:34.976Z,99273.34
2022-10-28T03:05:03.101Z,99274.47
2022-10-28T03:07:29.966Z,99263.16
2022-10-28T03:09:56.563Z,99257.38
2022-10-28T03:12:23.153Z,99249.94
2022-10-28T03:14:49.847Z,99247.69
2022-10-28T03:17:16.509Z,99236.94
2022-10-28T03:19:43.114Z,99235.00
2022-10-28T03:22:09.719Z,99235.00
2022-10-28T03:24:36.422Z,99234.19
2022-10-28T03:27:03.151Z,99221.22
2022-10-28T03:29:29.739Z,99208.81
2022-10-28T03:31:56.448Z,99206.06
2022-10-28T03:34:23.681Z,99208.31
2022-10-28T03:36:50.364Z,99197.78
2022-10-28T03:39:17.058Z,99190.94
2022-10-28T03:41:43.655Z,99176.34
2022-10-28T03:44:10.269Z,99191.75
2022-10-28T03:46:36.892Z,99174.41
2022-10-28T03:49:04.102Z,99173.59
2022-10-28T03:51:30.718Z,99171.34
2022-10-28T03:53:57.356Z,99161.44
2022-10-28T03:56:23.995Z,99150.94
2022-10-28T04:01:17.490Z,99142.13
2022-10-28T04:03:44.898Z,99126.94
2022-10-28T04:06:11.639Z,99138.19
2022-10-28T04:08:38.606Z,99144.25
2022-10-28T04:11:05.522Z,99139.56
2022-10-28T04:13:32.165Z,99139.25
2022-10-28T04:15:58.808Z,99133.75
2022-10-28T04:18:25.482Z,99137.31
2022-10-28T04:20:52.207Z,99135.41
2022-10-28T04:23:19.538Z,99127.66
2022-10-28T04:25:46.634Z,99126.53
2022-10-28T04:28:13.317Z,99123.78
2022-10-28T04:30:39.908Z,99116.06
2022-10-28T04:33:06.553Z,99108.31
2022-10-28T04:35:33.820Z,99106.13
2022-10-28T04:38:00.598Z,99116.53
2022-10-28T04:40:27.232Z,99104.63
2022-10-28T04:42:54.211Z,99117.31
2022-10-28T04:45:20.999Z,99110.69
2022-10-28T04:47:47.834Z,99123.34
2022-10-28T04:50:14.603Z,99125.81
2022-10-28T04:52:41.203Z,99127.44
2022-10-28T04:55:08.190Z,99126.06
2022-10-28T04:57:34.719Z,99129.06
2022-10-28T05:00:01.321Z,99123.78
2022-10-28T05:02:27.961Z,99124.31
2022-10-28T05:04:54.767Z,99109.94
2022-10-28T05:07:23.529Z,99103.81
2022-10-28T05:09:50.398Z,99097.97
2022-10-28T05:12:16.998Z,99108.94
2022-10-28T05:14:43.587Z,99118.59
2022-10-28T05:17:11.367Z,99120.50
2022-10-28T05:19:37.998Z,99107.25
2022-10-28T05:22:04.610Z,99100.84
2022-10-28T05:24:31.229Z,99092.56
2022-10-28T05:26:59.997Z,99077.13
2022-10-28T05:29:30.912Z,99107.69
2022-10-28T05:32:00.748Z,99119.84
2022-10-28T05:34:28.107Z,99123.66
2022-10-28T05:36:55.029Z,99125.31
2022-10-28T05:39:21.647Z,99111.00
2022-10-28T05:41:48.293Z,99113.09
2022-10-28T05:44:14.941Z,99128.78
2022-10-28T05:46:41.588Z,99124.91
2022-10-28T05:49:08.179Z,99139.75
2022-10-28T05:51:34.794Z,99128.41
2022-10-28T05:54:01.368Z,99127.59
2022-10-28T05:56:27.949Z,99120.66
2022-10-28T05:58:54.546Z,99114.03
2022-10-28T06:01:21.189Z,99110.72
2022-10-28T06:03:48.701Z,99114.59
2022-10-28T06:06:15.452Z,99115.72
2022-10-28T06:08:42.271Z,99107.44
2022-10-28T06:11:07.424Z,99107.97
2022-10-28T06:13:34.051Z,99103.56
2022-10-28T06:16:00.675Z,99093.06
2022-10-28T06:18:27.304Z,99093.06
2022-10-28T06:20:56.236Z,99085.28
2022-10-28T06:23:24.837Z,99079.19
2022-10-28T06:28:30.827Z,99060.63
2022-10-28T06:31:07.274Z,99066.94
2022-10-28T06:33:34.890Z,99050.38
2022-10-28T06:36:02.356Z,99058.16
2022-10-28T06:38:29.266Z,99048.75
2022-10-28T06:40:58.027Z,99056.22
2022-10-28T06:43:25.071Z,99054.53
2022-10-28T06:45:55.346Z,99058.63
2022-10-28T06:48:24.110Z,99065.72
2022-10-28T06:50:50.769Z,99069.31
2022-10-28T06:53:17.448Z,99078.69
2022-10-28T06:55:48.839Z,99076.16
2022-10-28T06:58:15.592Z,99085.50
2022-10-28T07:00:42.210Z,99093.63
2022-10-28T07:03:10.816Z,99096.91
2022-10-28T07:05:37.757Z,99104.63
2022-10-28T07:08:05.000Z,99117.06
2022-10-28T07:10:31.677Z,99135.59
2022-10-28T07:12:58.489Z,99157.09
2022-10-28T07:15:25.967Z,99169.31
2022-10-28T07:17:57.868Z,99172.72
2022-10-28T07:20:27.411Z,99184.81
2022-10-28T07:23:01.735Z,99172.56
2022-10-28T07:25:30.878Z,99191.59
2022-10-28T07:27:58.958Z,99184.81
2022-10-28T07:30:26.504Z,99195.13
2022-10-28T07:32:53.347Z,99206.78
2022-10-28T07:35:20.194Z,99221.75
2022-10-28T07:37:47.112Z,99224.00
2022-10-28T07:40:14.247Z,99238.44
2022-10-28T07:42:40.990Z,99246.50
2022-10-28T07:45:08.061Z,99241.03
2022-10-28T07:47:34.708Z,99250.66
2022-10-28T07:50:01.316Z,99255.66
2022-10-28T07:52:27.974Z,99260.09
2022-10-28T07:54:54.606Z,99269.44
2022-10-28T07:57:21.189Z,99265.56
2022-10-28T07:59:48.013Z,99275.50
2022-10-28T08:02:17.796Z,99279.34
2022-10-28T08:04:45.239Z,99292.31
2022-10-28T08:07:13.630Z,99289.81
2022-10-28T08:09:41.365Z,99312.94
2022-10-28T08:12:09.154Z,99320.97
2022-10-28T08:14:35.793Z,99321.78
2022-10-28T08:17:02.490Z,99320.38
2022-10-28T08:19:29.162Z,99299.13
2022-10-28T08:21:55.972Z,99298.56
2022-10-28T08:24:22.886Z,99314.56
2022-10-28T08:26:49.898Z,99328.34
2022-10-28T08:29:16.776Z,99335.19
2022-10-28T08:31:43.359Z,99346.19
2022-10-28T08:34:10.757Z,99351.44
2022-10-28T08:36:37.765Z,99356.38
2022-10-28T08:39:04.761Z,99373.75
2022-10-28T08:41:48.191Z,99374.56
2022-10-28T08:44:31.066Z,99380.66
2022-10-28T08:47:13.998Z,99392.19
2022-10-28T08:49:44.461Z,99397.97
2022-10-28T08:52:32.997Z,99402.63
2022-10-28T08:55:07.780Z,99413.09
2022-10-28T08:57:40.797Z,99418.63
2022-10-28T09:00:16.929Z,99419.69
2022-10-28T09:02:52.519Z,99434.03
2022-10-28T09:05:25.207Z,99443.09
2022-10-28T09:07:53.751Z,99455.78
2022-10-28T09:10:42.532Z,99458.25
2022-10-28T09:13:34.905Z,99463.50
2022-10-28T09:16:16.722Z,99479.78
2022-10-28T09:18:53.288Z,99478.72
2022-10-28T09:21:31.030Z,99494.47
2022-10-28T09:23:59.856Z,99500.56
2022-10-28T09:26:45.039Z,99511.31
2022-10-28T09:29:44.296Z,99507.75
2022-10-28T09:32:20.392Z,99519.03
2022-10-28T09:35:00.128Z,99521.47
2022-10-28T09:37:39.661Z,99528.34
2022-10-28T09:40:39.676Z,99533.03
2022-10-28T09:43:06.201Z,99542.69
2022-10-28T09:45:37.405Z,99546.03
2022-10-28T09:48:31.015Z,99552.13
2022-10-28T09:50:59.173Z,99554.63
2022-10-28T09:53:53.143Z,99547.69
2022-10-28T09:56:20.124Z,99547.13
2022-10-28T09:58:48.654Z,99534.44
2022-10-28T10:01:17.966Z,99548.75
2022-10-28T10:03:47.852Z,99554.25
2022-10-28T10:06:21.898Z,99556.97
2022-10-28T10:08:48.855Z,99567.47
2022-10-28T10:11:42.894Z,99578.50
2022-10-28T10:14:19.401Z,99578.03
2022-10-28T10:16:51.447Z,99583.53
2022-10-28T10:19:18.266Z,99581.59
2022-10-28T10:21:54.231Z,99581.28
2022-10-28T10:24:31.282Z,99594.50
2022-10-28T10:27:02.424Z,99590.63
2022-10-28T10:29:30.772Z,99601.13
2022-10-28T10:32:32.961Z,99610.50
2022-10-28T10:35:18.483Z,99619.31
2022-10-28T10:37:47.249Z,99622.06
2022-10-28T10:40:23.082Z,99621.75
2022-10-28T10:43:09.594Z,99630.34
2022-10-28T10:45:36.751Z,99619.84
2022-10-28T10:48:12.067Z,99626.47
2022-10-28T10:50:39.471Z,99631.72
2022-10-28T10:53:06.181Z,99629.81
2022-10-28T10:55:36.732Z,99624.25
2022-10-28T10:58:05.537Z,99647.66
2022-10-28T11:00:47.980Z,99646.03
2022-10-28T11:03:39.105Z,99654.06
2022-10-28T11:06:23.089Z,99651.88
2022-10-28T11:08:56.975Z,99666.19
2022-10-28T11:11:32.581Z,99667.84
2022-10-28T11:14:18.176Z,99679.44
2022-10-28T11:16:54.098Z,99673.94
2022-10-28T11:19:28.597Z,99677.22
2022-10-28T11:22:28.963Z,99689.66
2022-10-28T11:25:29.194Z,99692.13
2022-10-28T11:28:14.212Z,99700.69
2022-10-28T11:31:08.601Z,99703.72
2022-10-28T11:33:44.073Z,99694.56
2022-10-28T11:36:25.279Z,99698.44
2022-10-28T11:39:03.794Z,99704.47
2022-10-28T11:42:02.574Z,99691.22
2022-10-28T11:44:56.806Z,99695.91
2022-10-28T11:48:00.919Z,99688.72
2022-10-28T11:50:46.451Z,99682.63
2022-10-28T11:53:21.878Z,99686.19
2022-10-28T11:55:59.406Z,99688.09
2022-10-28T11:58:51.064Z,99686.38
2022-10-28T12:02:15.677Z,99687.72
2022-10-28T12:04:52.686Z,99705.34
2022-10-28T12:07:39.479Z,99712.31
2022-10-28T12:10:36.865Z,99718.41
2022-10-28T12:13:25.686Z,99715.09
2022-10-28T12:16:07.363Z,99723.94
2022-10-28T12:18:58.984Z,99731.34
2022-10-28T12:24:14.737Z,99746.50
2022-10-28T12:26:45.756Z,99751.78
2022-10-28T12:29:22.333Z,99754.50
2022-10-28T12:32:12.575Z,99763.94
2022-10-28T12:34:47.503Z,99765.63
2022-10-28T12:37:37.680Z,99761.47
2022-10-28T12:40:46.217Z,99770.91
2022-10-28T12:43:25.073Z,99770.09
2022-10-28T12:45:56.327Z,99773.16
2022-10-28T12:48:35.474Z,99779.47
2022-10-28T12:51:14.974Z,99778.66
2022-10-28T12:53:46.406Z,99780.28
2022-10-28T12:56:22.512Z,99781.59
2022-10-28T12:59:01.349Z,99782.44
2022-10-28T13:01:31.447Z,99783.50
2022-10-28T13:03:58.502Z,99787.59
2022-10-28T13:06:55.908Z,99797.53
2022-10-28T13:09:37.930Z,99788.44
2022-10-28T13:12:15.543Z,99792.56
2022-10-28T13:15:10.060Z,99784.25
2022-10-28T13:17:49.058Z,99783.13
2022-10-28T13:20:41.721Z,99795.31
2022-10-28T13:23:30.118Z,99810.25
2022-10-28T13:26:08.672Z,99806.09
2022-10-28T13:28:42.942Z,99800.56
2022-10-28T13:31:09.998Z,99807.75
2022-10-28T13:33:38.613Z,99804.19
2022-10-28T13:36:15.830Z,99814.41
2022-10-28T13:38:43.082Z,99805.03
2022-10-28T13:41:25.890Z,99809.78
2022-10-28T13:43:54.402Z,99814.47
2022-10-28T13:46:58.366Z,99800.72
2022-10-28T13:49:30.054Z,99816.69
2022-10-28T13:52:05.195Z,99805.38
2022-10-28T13:54:56.418Z,99811.47
2022-10-28T13:57:25.982Z,99813.13
2022-10-28T13:59:59.816Z,99826.13
2022-10-28T14:02:46.008Z,99818.94
2022-10-28T14:05:15.706Z,99817.28
2022-10-28T14:08:17.468Z,99814.75
2022-10-28T14:11:08.588Z,99800.66
2022-10-28T14:13:46.943Z,99808.94
2022-10-28T14:16:29.182Z,99807.59
2022-10-28T14:19:10.715Z,99810.66
2022-10-28T14:21:40.678Z,99826.16
2022-10-28T14:24:10.608Z,99819.81
2022-10-28T14:27:08.673Z,99822.84
2022-10-28T14:30:10.155Z,99820.66
2022-10-28T14:32:43.015Z,99812.94
2022-10-28T14:35:15.418Z,99815.41
2022-10-28T14:38:03.784Z,99812.63
2022-10-28T14:40:51.606Z,99809.00
2022-10-28T14:43:22.153Z,99813.44
2022-10-28T14:46:01.079Z,99821.72
2022-10-28T14:48:36.264Z,99817.53
2022-10-28T14:51:03.763Z,99816.16
2022-10-28T14:53:35.540Z,99821.97
2022-10-28T14:56:24.347Z,99821.66
2022-10-28T14:58:52.561Z,99813.38
2022-10-28T15:01:26.416Z,99823.34
2022-10-28T15:04:06.365Z,99823.06
2022-10-28T15:06:42.609Z,99821.69
2022-10-28T15:09:21.814Z,99830.25
2022-10-28T15:12:05.879Z,99831.69
2022-10-28T15:14:36.825Z,99822.84
2022-10-28T15:17:27.518Z,99833.63
2022-10-28T15:19:59.302Z,99840.25
2022-10-28T15:22:32.199Z,99850.75
2022-10-28T15:25:13.403Z,99846.59
2022-10-28T15:27:42.881Z,99846.84
2022-10-28T15:30:21.189Z,99856.81
2022-10-28T15:32:47.942Z,99849.06
2022-10-28T15:35:38.443Z,99851.53
2022-10-28T15:38:32.172Z,99857.63
2022-10-28T15:40:59.049Z,99868.69
2022-10-28T15:43:30.870Z,99870.34
2022-10-28T15:46:15.437Z,99876.44
2022-10-28T15:48:42.666Z,99879.78
2022-10-28T15:51:13.432Z,99884.19
2022-10-28T15:53:43.452Z,99890.25
2022-10-28T15:56:19.816Z,99883.91
2022-10-28T15:58:50.433Z,99886.97
2022-10-28T16:01:39.279Z,99882.00
2022-10-28T16:04:18.091Z,99899.91
2022-10-28T16:06:45.960Z,99899.63
2022-10-28T16:09:18.974Z,99898.81
2022-10-28T16:11:50.161Z,99898.50
2022-10-28T16:14:39.218Z,99902.94
2022-10-28T16:17:16.329Z,99903.75
2022-10-28T16:19:59.981Z,99909.00
2022-10-28T16:22:32.616Z,99913.94
2022-10-28T16:24:59.467Z,99920.56
2022-10-28T16:27:31.338Z,99932.09
2022-10-28T16:29:58.050Z,99935.09
2022-10-28T16:32:34.897Z,99948.56
2022-10-28T16:35:02.206Z,99950.19
2022-10-28T16:37:32.079Z,99960.13
2022-10-28T16:39:58.909Z,99957.59
2022-10-28T16:42:26.436Z,99958.38
2022-10-28T16:44:53.119Z,99955.28
2022-10-28T16:47:22.218Z,99946.72
2022-10-28T16:49:52.679Z,99963.72
2022-10-28T16:52:29.197Z,99960.38
2022-10-28T16:54:56.836Z,99960.59
2022-10-28T16:59:55.889Z,99966.84
2022-10-28T17:02:30.996Z,99974.75
2022-10-28T17:04:58.773Z,99976.34
2022-10-28T17:07:26.549Z,99971.41
2022-10-28T17:09:53.234Z,99968.88
2022-10-28T17:12:26.030Z,99966.94
2022-10-28T17:14:53.182Z,99970.47
2022-10-28T17:17:19.776Z,99971.84
2022-10-28T17:19:46.870Z,99968.72
2022-10-28T17:22:14.062Z,99973.41
2022-10-28T17:24:40.733Z,99971.44
2022-10-28T17:27:08.114Z,99978.53
2022-10-28T17:29:35.032Z,99969.16
2022-10-28T17:32:02.498Z,99968.84
2022-10-28T17:34:29.304Z,99956.69
2022-10-28T17:36:56.260Z,99952.28
2022-10-28T17:39:26.111Z,99950.31
2022-10-28T17:41:53.265Z,99950.31
2022-10-28T17:44:19.939Z,99948.06
2022-10-28T17:46:49.086Z,99948.63
2022-10-28T17:49:15.804Z,99955.44
2022-10-28T17:51:42.501Z,99958.16
2022-10-28T17:54:09.448Z,99955.66
2022-10-28T17:56:36.936Z,99966.56
2022-10-28T17:59:04.645Z,99977.25
2022-10-28T18:01:33.466Z,99982.72
2022-10-28T18:04:00.635Z,100002.72
2022-10-28T18:06:27.280Z,99998.56
2022-10-28T18:08:53.935Z,100003.72
2022-10-28T18:11:21.115Z,100013.91
2022-10-28T18:13:49.990Z,100014.09
2022-10-28T18:16:25.420Z,100009.94
2022-10-28T18:18:53.327Z,100014.59
2022-10-28T18:21:20.466Z,100016.19
2022-10-28T18:23:54.667Z,100013.38
2022-10-28T18:26:21.480Z,100018.53
2022-10-28T18:28:49.157Z,100016.81
2022-10-28T18:31:20.449Z,100028.06
2022-10-28T18:33:47.486Z,100025.81
2022-10-28T18:36:17.079Z,100009.34
2022-10-28T18:38:44.000Z,100015.34
2022-10-28T18:41:16.278Z,99996.38
2022-10-28T18:43:42.984Z,99995.47
2022-10-28T18:46:10.126Z,99994.88
2022-10-28T18:48:36.914Z,100000.31
2022-10-28T18:51:09.661Z,100006.22
2022-10-28T18:53:42.277Z,100021.22
2022-10-28T18:56:13.129Z,100029.06
2022-10-28T18:58:39.904Z,100034.78
2022-10-28T19:01:11.241Z,100031.69
2022-10-28T19:03:38.477Z,100038.47
2022-10-28T19:06:10.903Z,100042.03
2022-10-28T19:08:38.577Z,100046.34
2022-10-28T19:11:06.179Z,100037.03
2022-10-28T19:13:38.670Z,100032.06
2022-10-28T19:16:05.908Z,100030.97
2022-10-28T19:18:35.475Z,100031.53
2022-10-28T19:21:11.789Z,100040.28
2022-10-28T19:23:38.767Z,100034.69
2022-10-28T19:26:07.116Z,100054.16
2022-10-28T19:28:41.380Z,100049.31
2022-10-28T19:31:14.075Z,100057.81
2022-10-28T19:33:43.172Z,100056.03
2022-10-28T19:36:24.867Z,100057.97
2022-10-28T19:38:55.511Z,100053.31
2022-10-28T19:41:24.583Z,100051.66
2022-10-28T19:43:59.624Z,100041.00
2022-10-28T19:46:28.175Z,100036.69
2022-10-28T19:48:58.247Z,100030.69
2022-10-28T19:51:30.605Z,100033.22
2022-10-28T19:53:59.652Z,100028.91
2022-10-28T19:56:27.840Z,100025.31
2022-10-28T19:58:57.264Z,100028.63
2022-10-28T20:01:29.820Z,100030.53
2022-10-28T20:03:57.250Z,100026.16
2022-10-28T20:06:26.470Z,100029.72
2022-10-28T20:08:53.499Z,100023.06
2022-10-28T20:11:25.853Z,100038.44
2022-10-28T20:13:55.287Z,100043.19
2022-10-28T20:16:22.754Z,100043.19
2022-10-28T20:18:49.388Z,100042.84
2022-10-28T20:21:18.173Z,100047.28
2022-10-28T20:23:47.046Z,100038.28
2022-10-28T20:26:14.609Z,100042.91
2022-10-28T20:28:41.648Z,100043.78
2022-10-28T20:31:13.854Z,100034.13
2022-10-28T20:33:42.589Z,100039.13
2022-10-28T20:36:25.919Z,100040.19
2022-10-28T20:38:55.809Z,100038.59
2022-10-28T20:41:23.954Z,100043.53
2022-10-28T20:43:51.838Z,100062.47
2022-10-28T20:46:20.191Z,100055.06
2022-10-28T20:48:47.626Z,100066.78
2022-10-28T20:51:15.173Z,100069.53
2022-10-28T20:53:41.905Z,100077.47
2022-10-28T20:56:14.892Z,100082.94
2022-10-28T20:58:41.517Z,100086.59
2022-10-28T21:01:17.503Z,100087.91
2022-10-28T21:03:44.700Z,100089.56
2022-10-28T21:08:41.669Z,100089.25
2022-10-28T21:11:12.124Z,100097.25
2022-10-28T21:13:38.844Z,100096.41
2022-10-28T21:16:07.538Z,100094.75
2022-10-28T21:18:35.955Z,100098.31
2022-10-28T21:21:02.949Z,100103.81
2022-10-28T21:23:30.571Z,100099.97
2022-10-28T21:26:07.927Z,100104.38
2022-10-28T21:28:38.780Z,100100.06
2022-10-28T21:31:14.043Z,100102.56
2022-10-28T21:33:41.905Z,100103.97
2022-10-28T21:36:12.388Z,100108.38
2022-10-28T21:38:39.994Z,100107.06
2022-10-28T21:41:08.831Z,100101.31
2022-10-28T21:43:37.770Z,100107.91
2022-10-28T21:46:05.324Z,100105.72
2022-10-28T21:48:33.303Z,100102.50
2022-10-28T21:51:02.334Z,100110.72
2022-10-28T21:53:32.579Z,100107.41
2022-10-28T21:56:28.543Z,100101.94
2022-10-28T21:58:55.173Z,100101.31
2022-10-28T22:01:24.225Z,100098.09
2022-10-28T22:03:52.213Z,100090.44
2022-10-28T22:06:18.872Z,100089.59
2022-10-28T22:08:47.044Z,100087.94
2022-10-28T22:11:19.080Z,100087.94
2022-10-28T22:13:47.121Z,100083.84
2022-10-28T22:16:15.731Z,100080.28
2022-10-28T22:18:43.134Z,100077.53
2022-10-28T22:21:15.785Z,100079.44
2022-10-28T22:23:42.911Z,100073.97
2022-10-28T22:26:12.498Z,100072.78
2022-10-28T22:28:39.496Z,100074.47
2022-10-28T22:31:08.792Z,100083.78
2022-10-28T22:33:35.975Z,100085.94
2022-10-28T22:36:05.571Z,100078.81
2022-10-28T22:38:32.325Z,100086.78
2022-10-28T22:41:06.438Z,100082.13
2022-10-28T22:43:33.553Z,100084.84
2022-10-28T22:46:00.790Z,100081.28
2022-10-28T22:48:28.151Z,100077.44
2022-10-28T22:50:54.817Z,100074.47
2022-10-28T22:53:22.061Z,100064.31
2022-10-28T22:55:49.317Z,100056.91
2022-10-28T22:58:16.852Z,100046.50
2022-10-28T23:00:47.146Z,100048.16
2022-10-28T23:03:13.934Z,100064.41
2022-10-28T23:05:40.744Z,100053.16
2022-10-28T23:08:07.690Z,100052.06
2022-10-28T23:10:34.582Z,100054.81
2022-10-28T23:13:02.705Z,100060.31
2022-10-28T23:15:30.301Z,100049.34
2022-10-28T23:17:57.343Z,100041.94
2022-10-28T23:20:25.276Z,100036.44
2022-10-28T23:22:55.385Z,100044.66
2022-10-28T23:25:21.980Z,100044.44
2022-10-28T23:27:48.584Z,100050.75
2022-10-28T23:30:15.370Z,100054.06
2022-10-28T23:32:41.982Z,100036.28
2022-10-28T23:35:08.753Z,100045.59
2022-10-28T23:37:35.370Z,100039.03
2022-10-28T23:40:02.074Z,100043.19
2022-10-28T23:42:28.731Z,100047.34
2022-10-28T23:44:55.330Z,100053.44
2022-10-28T23:47:21.914Z,100063.81
2022-10-28T23:49:48.557Z,100060.56
2022-10-28T23:52:15.178Z,100042.19
2022-10-28T23:54:42.446Z,100043.84
2022-10-28T23:57:09.114Z,100044.66
2022-10-28T23:59:35.882Z,100044.19
